createdAt,value
2018-06-22T00:00:47.991Z,1.90
2018-06-22T00:03:15.742Z,2.27
2018-06-22T00:05:43.792Z,1.97
2018-06-22T00:08:11.514Z,1.90
2018-06-22T00:10:39.258Z,1.73
2018-06-22T00:13:06.983Z,1.67
2018-06-22T00:15:34.755Z,1.50
2018-06-22T00:18:02.425Z,2.20
2018-06-22T00:20:30.189Z,1.90
2018-06-22T00:22:57.913Z,1.73
2018-06-22T00:25:25.677Z,2.00
2018-06-22T00:27:53.480Z,1.70
2018-06-22T00:30:21.208Z,2.10
2018-06-22T00:32:48.985Z,1.40
2018-06-22T00:35:16.681Z,1.83
2018-06-22T00:37:44.486Z,1.87
2018-06-22T00:40:12.221Z,1.93
2018-06-22T00:42:40.038Z,1.83
2018-06-22T00:45:07.836Z,1.70
2018-06-22T00:47:35.667Z,1.80
2018-06-22T00:50:03.431Z,2.50
2018-06-22T00:52:31.444Z,2.13
2018-06-22T00:54:59.173Z,1.90
2018-06-22T00:57:26.875Z,2.07
2018-06-22T00:59:54.590Z,2.13
2018-06-22T01:02:22.357Z,1.97
2018-06-22T01:04:50.081Z,2.23
2018-06-22T01:07:17.803Z,1.90
2018-06-22T01:09:45.607Z,2.70
2018-06-22T01:12:13.262Z,2.30
2018-06-22T01:14:41.153Z,2.10
2018-06-22T01:17:08.826Z,2.20
2018-06-22T01:19:36.546Z,2.23
2018-06-22T01:22:04.330Z,2.57
2018-06-22T01:24:32.021Z,2.53
2018-06-22T01:26:59.893Z,2.20
2018-06-22T01:29:30.008Z,1.87
2018-06-22T01:31:58.321Z,2.00
2018-06-22T01:34:26.316Z,1.97
2018-06-22T01:36:54.222Z,2.10
2018-06-22T01:39:21.894Z,2.30
2018-06-22T01:41:49.726Z,2.23
2018-06-22T01:44:17.479Z,2.13
2018-06-22T01:46:45.296Z,1.90
2018-06-22T01:49:12.967Z,2.20
2018-06-22T01:51:40.805Z,1.67
2018-06-22T01:54:08.496Z,1.90
2018-06-22T01:56:36.221Z,2.27
2018-06-22T01:59:04.027Z,2.00
2018-06-22T02:01:32.010Z,2.57
2018-06-22T02:03:59.865Z,2.60
2018-06-22T02:06:27.595Z,2.50
2018-06-22T02:08:55.402Z,2.57
2018-06-22T02:11:23.108Z,2.67
2018-06-22T02:13:50.978Z,2.33
2018-06-22T02:16:18.682Z,2.40
2018-06-22T02:18:46.450Z,2.43
2018-06-22T02:21:14.192Z,2.03
2018-06-22T02:23:41.938Z,2.20
2018-06-22T02:26:09.749Z,2.27
2018-06-22T02:28:37.454Z,3.27
2018-06-22T02:31:05.253Z,2.00
2018-06-22T02:33:32.990Z,2.63
2018-06-22T02:36:00.816Z,2.20
2018-06-22T02:38:28.617Z,2.30
2018-06-22T02:41:01.745Z,3.20
2018-06-22T02:43:29.524Z,3.27
2018-06-22T02:45:57.284Z,2.57
2018-06-22T02:48:25.079Z,2.80
2018-06-22T02:50:52.890Z,3.30
2018-06-22T02:53:20.637Z,2.70
2018-06-22T02:55:48.671Z,2.70
2018-06-22T02:58:16.405Z,3.20
2018-06-22T03:00:44.145Z,2.33
2018-06-22T03:03:11.873Z,2.77
2018-06-22T03:05:39.577Z,2.90
2018-06-22T03:08:07.514Z,2.77
2018-06-22T03:10:35.272Z,3.20
2018-06-22T03:13:03.009Z,4.13
2018-06-22T03:15:30.850Z,3.20
2018-06-22T03:17:58.588Z,2.87
2018-06-22T03:20:26.387Z,3.37
2018-06-22T03:22:54.214Z,2.77
2018-06-22T03:25:22.047Z,3.03
2018-06-22T03:27:49.806Z,3.43
2018-06-22T03:30:17.584Z,3.27
2018-06-22T03:32:45.270Z,2.77
2018-06-22T03:35:13.111Z,2.20
2018-06-22T03:37:40.843Z,2.67
2018-06-22T03:40:08.577Z,2.33
2018-06-22T03:42:36.325Z,2.53
2018-06-22T03:45:04.232Z,2.63
2018-06-22T03:47:32.054Z,2.50
2018-06-22T03:49:59.770Z,2.40
2018-06-22T03:52:27.546Z,2.27
2018-06-22T03:54:55.241Z,2.90
2018-06-22T03:57:23.058Z,3.17
2018-06-22T03:59:50.821Z,2.57
2018-06-22T04:02:18.653Z,2.40
2018-06-22T04:04:46.422Z,2.80
2018-06-22T04:07:14.141Z,3.00
2018-06-22T04:09:41.888Z,2.00
2018-06-22T04:12:09.726Z,2.83
2018-06-22T04:14:37.566Z,2.43
2018-06-22T04:17:05.298Z,2.87
2018-06-22T04:19:33.130Z,2.97
2018-06-22T04:22:00.829Z,2.83
2018-06-22T04:24:28.630Z,3.07
2018-06-22T04:26:56.315Z,2.50
2018-06-22T04:29:24.049Z,2.50
2018-06-22T04:31:51.825Z,3.20
2018-06-22T04:34:19.611Z,3.00
2018-06-22T04:36:47.289Z,2.60
2018-06-22T04:39:15.063Z,2.57
2018-06-22T04:41:42.789Z,1.37
2018-06-22T04:44:10.555Z,3.00
2018-06-22T04:46:38.306Z,3.10
2018-06-22T04:49:06.149Z,2.50
2018-06-22T04:51:33.869Z,3.07
2018-06-22T04:54:01.807Z,2.40
2018-06-22T04:56:30.138Z,2.80
2018-06-22T04:58:58.093Z,2.73
2018-06-22T05:01:25.866Z,2.30
2018-06-22T05:03:53.631Z,3.10
2018-06-22T05:06:21.379Z,2.73
2018-06-22T05:08:49.141Z,2.57
2018-06-22T05:11:16.919Z,2.77
2018-06-22T05:13:44.626Z,3.73
2018-06-22T05:16:12.405Z,3.00
2018-06-22T05:18:40.191Z,2.70
2018-06-22T05:21:12.499Z,2.40
2018-06-22T05:23:40.198Z,3.10
2018-06-22T05:26:07.925Z,2.73
2018-06-22T05:28:35.711Z,3.50
2018-06-22T05:31:03.496Z,2.53
2018-06-22T05:33:31.276Z,2.80
2018-06-22T05:35:59.043Z,2.50
2018-06-22T05:38:26.732Z,2.10
2018-06-22T05:40:54.913Z,3.67
2018-06-22T05:43:22.674Z,2.97
2018-06-22T05:45:50.592Z,4.10
2018-06-22T05:48:18.385Z,3.23
2018-06-22T05:50:46.121Z,3.60
2018-06-22T05:53:13.901Z,3.33
2018-06-22T05:55:41.630Z,2.43
2018-06-22T05:58:09.426Z,3.30
2018-06-22T06:00:37.297Z,3.67
2018-06-22T06:03:05.017Z,4.63
2018-06-22T06:05:33.732Z,3.80
2018-06-22T06:08:01.546Z,4.00
2018-06-22T06:10:29.361Z,3.60
2018-06-22T06:12:57.143Z,3.60
2018-06-22T06:15:25.059Z,2.57
2018-06-22T06:17:52.810Z,3.30
2018-06-22T06:20:20.789Z,3.13
2018-06-22T06:22:52.401Z,2.60
2018-06-22T06:25:20.150Z,4.87
2018-06-22T06:27:47.854Z,3.67
2018-06-22T06:30:16.461Z,4.10
2018-06-22T06:32:44.174Z,4.93
2018-06-22T06:35:11.883Z,3.57
2018-06-22T06:37:39.654Z,3.90
2018-06-22T06:40:07.523Z,3.80
2018-06-22T06:42:35.274Z,4.07
2018-06-22T06:45:03.043Z,4.00
2018-06-22T06:47:30.776Z,3.70
2018-06-22T06:49:58.537Z,3.43
2018-06-22T06:52:26.311Z,3.40
2018-06-22T06:55:02.000Z,3.43
2018-06-22T06:57:29.774Z,3.37
2018-06-22T06:59:57.666Z,3.10
2018-06-22T07:02:25.479Z,3.73
2018-06-22T07:04:53.222Z,2.40
2018-06-22T07:07:20.919Z,2.43
2018-06-22T07:09:48.650Z,2.40
2018-06-22T07:12:16.753Z,2.70
2018-06-22T07:14:44.473Z,2.10
2018-06-22T07:17:12.260Z,2.17
2018-06-22T07:19:40.014Z,1.97
2018-06-22T07:22:07.704Z,2.50
2018-06-22T07:24:35.535Z,2.47
2018-06-22T07:27:03.555Z,1.70
2018-06-22T07:29:31.397Z,1.70
2018-06-22T07:31:59.138Z,1.90
2018-06-22T07:34:26.841Z,1.40
2018-06-22T07:36:54.602Z,1.70
2018-06-22T07:39:22.282Z,1.83
2018-06-22T07:41:50.035Z,1.87
2018-06-22T07:44:17.798Z,1.80
2018-06-22T07:46:45.558Z,1.10
2018-06-22T07:49:13.350Z,1.47
2018-06-22T07:51:41.087Z,1.50
2018-06-22T07:54:08.841Z,0.93
2018-06-22T07:56:36.562Z,1.40
2018-06-22T07:59:04.450Z,1.60
2018-06-22T08:01:32.267Z,1.23
2018-06-22T08:04:00.013Z,1.53
2018-06-22T08:06:27.726Z,1.40
2018-06-22T08:08:55.430Z,1.37
2018-06-22T08:11:23.321Z,2.00
2018-06-22T08:13:51.086Z,1.73
2018-06-22T08:16:18.876Z,1.63
2018-06-22T08:18:46.604Z,0.90
2018-06-22T08:21:14.787Z,1.00
2018-06-22T08:23:42.512Z,1.20
2018-06-22T08:26:10.246Z,1.27
2018-06-22T08:28:38.080Z,1.17
2018-06-22T08:31:05.927Z,1.43
2018-06-22T08:33:33.643Z,0.70
2018-06-22T08:36:01.389Z,2.10
2018-06-22T08:38:29.458Z,1.13
2018-06-22T08:40:57.377Z,1.50
2018-06-22T08:43:25.193Z,1.13
2018-06-22T08:45:53.818Z,1.70
2018-06-22T08:48:21.644Z,1.50
2018-06-22T08:50:49.374Z,1.40
2018-06-22T08:53:17.218Z,1.63
2018-06-22T08:55:45.026Z,1.63
2018-06-22T08:58:12.915Z,1.50
2018-06-22T09:00:40.764Z,1.90
2018-06-22T09:03:08.729Z,1.70
2018-06-22T09:05:36.462Z,1.50
2018-06-22T09:08:04.292Z,1.83
2018-06-22T09:10:32.043Z,1.33
2018-06-22T09:13:00.087Z,1.30
2018-06-22T09:15:27.854Z,1.00
2018-06-22T09:17:55.630Z,1.87
2018-06-22T09:20:23.375Z,1.93
2018-06-22T09:22:51.156Z,1.37
2018-06-22T09:25:18.915Z,1.10
2018-06-22T09:27:46.725Z,1.00
2018-06-22T09:30:14.451Z,0.93
2018-06-22T09:32:42.134Z,1.20
2018-06-22T09:35:10.815Z,1.47
2018-06-22T09:37:38.899Z,1.83
2018-06-22T09:40:06.798Z,1.37
2018-06-22T09:42:34.822Z,1.80
2018-06-22T09:45:02.536Z,1.00
2018-06-22T09:47:30.239Z,1.00
2018-06-22T09:49:57.984Z,1.30
2018-06-22T09:52:25.697Z,1.20
2018-06-22T09:54:53.479Z,1.10
2018-06-22T09:57:21.205Z,1.57
2018-06-22T09:59:48.926Z,1.20
2018-06-22T10:02:16.775Z,1.17
2018-06-22T10:04:44.594Z,1.30
2018-06-22T10:07:12.302Z,1.20
2018-06-22T10:09:40.024Z,1.27
2018-06-22T10:12:07.743Z,1.30
2018-06-22T10:14:35.473Z,1.63
2018-06-22T10:17:03.292Z,1.10
2018-06-22T10:19:31.125Z,2.13
2018-06-22T10:21:58.838Z,1.47
2018-06-22T10:24:26.683Z,1.23
2018-06-22T10:26:54.663Z,1.20
2018-06-22T10:29:22.423Z,1.70
2018-06-22T10:31:50.224Z,1.60
2018-06-22T10:34:17.961Z,1.50
2018-06-22T10:36:45.728Z,1.37
2018-06-22T10:39:13.636Z,1.57
2018-06-22T10:41:41.616Z,1.40
2018-06-22T10:44:10.059Z,1.10
2018-06-22T10:46:38.013Z,2.00
2018-06-22T10:49:05.953Z,2.23
2018-06-22T10:51:33.870Z,3.07
2018-06-22T10:54:01.883Z,2.50
2018-06-22T10:56:29.741Z,2.13
2018-06-22T10:58:57.702Z,3.53
2018-06-22T11:01:25.498Z,1.93
2018-06-22T11:03:53.303Z,2.73
2018-06-22T11:06:21.162Z,1.83
2018-06-22T11:08:48.956Z,2.13
2018-06-22T11:11:16.746Z,1.90
2018-06-22T11:13:44.516Z,2.07
2018-06-22T11:16:12.274Z,1.17
2018-06-22T11:18:40.050Z,1.53
2018-06-22T11:21:07.848Z,1.33
2018-06-22T11:23:35.607Z,1.93
2018-06-22T11:26:05.803Z,1.80
2018-06-22T11:28:33.597Z,1.83
2018-06-22T11:31:01.351Z,1.50
2018-06-22T11:33:29.203Z,1.40
2018-06-22T11:35:57.050Z,1.67
2018-06-22T11:38:24.996Z,2.00
2018-06-22T11:40:53.675Z,1.73
2018-06-22T11:43:29.085Z,1.83
2018-06-22T11:45:56.849Z,1.73
2018-06-22T11:48:24.663Z,1.20
2018-06-22T11:50:54.196Z,1.60
2018-06-22T11:53:22.033Z,1.63
2018-06-22T11:55:49.760Z,1.47
2018-06-22T11:58:17.811Z,1.93
2018-06-22T12:00:45.666Z,1.73
2018-06-22T12:03:13.442Z,1.97
2018-06-22T12:05:41.425Z,1.60
2018-06-22T12:08:09.162Z,2.50
2018-06-22T12:10:36.901Z,1.50
2018-06-22T12:13:04.774Z,1.47
2018-06-22T12:15:32.566Z,1.53
2018-06-22T12:18:00.373Z,2.20
2018-06-22T12:20:28.146Z,2.60
2018-06-22T12:22:55.724Z,1.73
2018-06-22T12:25:23.954Z,1.80
2018-06-22T12:27:51.773Z,2.73
2018-06-22T12:30:19.754Z,1.97
2018-06-22T12:32:47.666Z,1.70
2018-06-22T12:35:15.481Z,2.80
2018-06-22T12:37:43.334Z,2.53
2018-06-22T12:40:11.219Z,2.80
2018-06-22T12:42:39.452Z,2.57
2018-06-22T12:45:07.291Z,2.20
2018-06-22T12:47:35.069Z,2.03
2018-06-22T12:50:02.878Z,1.73
2018-06-22T13:02:15.748Z,2.20
2018-06-22T13:04:43.744Z,2.77
2018-06-22T13:07:11.520Z,2.43
2018-06-22T13:09:39.326Z,2.80
2018-06-22T13:12:07.202Z,2.40
2018-06-22T13:14:34.874Z,1.77
2018-06-22T13:17:02.672Z,2.50
2018-06-22T13:19:30.426Z,2.20
2018-06-22T13:21:58.149Z,1.90
2018-06-22T13:24:26.019Z,2.00
2018-06-22T13:29:46.705Z,1.90
2018-06-22T13:32:14.514Z,1.77
2018-06-22T13:34:42.294Z,3.00
2018-06-22T13:37:10.078Z,1.97
2018-06-22T13:39:37.860Z,1.90
2018-06-22T13:42:05.652Z,1.80
2018-06-22T13:44:33.417Z,1.97
2018-06-22T13:47:01.171Z,1.90
2018-06-22T13:49:28.961Z,1.77
2018-06-22T13:51:56.560Z,2.50
2018-06-22T13:54:24.337Z,1.97
2018-06-22T13:56:57.766Z,2.07
2018-06-22T13:59:25.521Z,2.10
2018-06-22T14:01:53.337Z,2.10
2018-06-22T14:04:26.563Z,1.20
2018-06-22T14:06:55.811Z,1.90
2018-06-22T14:09:23.591Z,2.07
2018-06-22T14:11:51.450Z,1.90
2018-06-22T14:14:19.365Z,1.67
2018-06-22T14:16:47.549Z,1.70
2018-06-22T14:19:15.333Z,1.73
2018-06-22T14:21:43.203Z,1.50
2018-06-22T14:24:10.946Z,1.50
2018-06-22T14:26:38.905Z,2.83
2018-06-22T14:29:06.780Z,1.40
2018-06-22T14:31:34.651Z,1.53
2018-06-22T14:34:02.466Z,1.40
2018-06-22T14:36:30.175Z,1.70
2018-06-22T14:38:57.977Z,2.10
2018-06-22T14:41:25.759Z,1.90
2018-06-22T14:43:54.170Z,1.90
2018-06-22T14:48:55.465Z,2.10
2018-06-22T14:51:23.202Z,1.93
2018-06-22T14:53:56.622Z,1.80
2018-06-22T14:56:30.108Z,1.60
2018-06-22T14:59:03.633Z,1.77
2018-06-22T15:01:37.014Z,2.00
2018-06-22T15:04:10.508Z,2.00
2018-06-22T15:06:43.851Z,2.00
2018-06-22T15:09:11.732Z,2.00
2018-06-22T15:11:39.583Z,1.73
2018-06-22T15:14:07.297Z,1.67
2018-06-22T15:16:35.331Z,2.00
2018-06-22T15:19:03.042Z,1.77
2018-06-22T15:21:30.827Z,2.30
2018-06-22T15:23:59.199Z,2.00
2018-06-22T15:26:27.475Z,2.10
2018-06-22T15:28:55.744Z,2.00
2018-06-22T15:31:23.655Z,2.50
2018-06-22T15:33:57.182Z,2.90
2018-06-22T15:36:30.746Z,2.10
2018-06-22T15:39:04.286Z,2.07
2018-06-22T15:41:37.705Z,2.07
2018-06-22T15:44:11.118Z,2.17
2018-06-22T15:46:44.563Z,2.03
2018-06-22T15:49:17.847Z,2.00
2018-06-22T15:51:51.219Z,1.83
2018-06-22T15:54:24.946Z,1.73
2018-06-22T15:56:52.790Z,3.07
2018-06-22T15:59:20.590Z,2.23
2018-06-22T16:01:48.376Z,1.90
2018-06-22T16:04:16.186Z,1.90
2018-06-22T16:06:43.983Z,2.20
2018-06-22T16:09:13.585Z,2.00
2018-06-22T16:11:41.357Z,1.90
2018-06-22T16:15:17.796Z,2.07
2018-06-22T16:17:52.063Z,2.30
2018-06-22T16:20:25.433Z,2.00
2018-06-22T16:22:58.769Z,2.33
2018-06-22T16:25:32.034Z,2.17
2018-06-22T16:28:01.864Z,1.87
2018-06-22T16:30:30.123Z,2.20
2018-06-22T16:32:57.910Z,1.90
2018-06-22T16:35:26.002Z,2.17
2018-06-22T16:37:53.979Z,2.20
2018-06-22T16:40:21.863Z,1.70
2018-06-22T16:42:50.018Z,2.47
2018-06-22T16:45:17.798Z,2.20
2018-06-22T16:47:45.554Z,2.17
2018-06-22T16:50:13.407Z,2.03
2018-06-22T16:52:41.928Z,2.10
2018-06-22T16:55:10.547Z,2.40
2018-06-22T16:57:38.345Z,2.07
2018-06-22T17:00:07.018Z,2.20
2018-06-22T17:02:34.809Z,3.13
2018-06-22T17:05:02.774Z,2.20
2018-06-22T17:07:36.318Z,2.40
2018-06-22T17:10:09.877Z,2.03
2018-06-22T17:12:43.330Z,1.80
2018-06-22T17:15:16.589Z,2.10
2018-06-22T17:17:50.090Z,2.50
2018-06-22T17:20:18.838Z,2.00
2018-06-22T17:22:46.678Z,2.73
2018-06-22T17:25:14.744Z,2.00
2018-06-22T17:27:43.123Z,2.17
2018-06-22T17:30:10.855Z,2.80
2018-06-22T17:32:38.704Z,2.23
2018-06-22T17:35:06.414Z,2.03
2018-06-22T17:37:34.374Z,2.10
2018-06-22T17:40:02.142Z,2.00
2018-06-22T17:42:29.851Z,1.40
2018-06-22T17:44:57.618Z,1.97
2018-06-22T17:47:25.499Z,1.73
2018-06-22T17:49:53.286Z,1.53
2018-06-22T17:52:20.980Z,1.90
2018-06-22T17:54:49.008Z,1.90
2018-06-22T17:57:16.797Z,1.90
2018-06-22T17:59:50.205Z,2.30
2018-06-22T18:03:23.624Z,2.37
2018-06-22T18:05:57.121Z,1.90
2018-06-22T18:08:30.767Z,2.33
2018-06-22T18:11:04.191Z,2.10
2018-06-22T18:13:31.996Z,2.00
2018-06-22T18:15:59.690Z,1.80
2018-06-22T18:18:27.522Z,2.13
2018-06-22T18:20:55.368Z,1.93
2018-06-22T18:23:23.182Z,2.00
2018-06-22T18:25:50.924Z,2.20
2018-06-22T18:28:18.709Z,2.17
2018-06-22T18:30:46.602Z,1.83
2018-06-22T18:33:14.367Z,1.90
2018-06-22T18:35:42.178Z,2.50
2018-06-22T18:38:09.894Z,2.13
2018-06-22T18:40:37.741Z,2.00
2018-06-22T18:43:05.886Z,2.30
2018-06-22T18:45:33.680Z,2.40
2018-06-22T18:48:01.437Z,2.53
2018-06-22T18:50:29.241Z,2.13
2018-06-22T18:53:02.653Z,1.90
2018-06-22T18:55:35.934Z,2.00
2018-06-22T18:58:09.245Z,2.37
2018-06-22T19:00:42.538Z,2.13
2018-06-22T19:03:15.804Z,2.33
2018-06-22T19:05:43.636Z,2.10
2018-06-22T19:08:11.359Z,2.17
2018-06-22T19:10:39.165Z,2.53
2018-06-22T19:13:06.942Z,2.27
2018-06-22T19:15:34.799Z,1.90
2018-06-22T19:18:02.618Z,1.90
2018-06-22T19:20:30.460Z,2.07
2018-06-22T19:22:58.237Z,2.20
2018-06-22T19:25:26.116Z,2.30
2018-06-22T19:27:53.951Z,2.40
2018-06-22T19:30:21.776Z,2.43
2018-06-22T19:32:49.585Z,2.37
2018-06-22T19:35:17.379Z,2.30
2018-06-22T19:37:45.223Z,2.30
2018-06-22T19:40:13.301Z,2.73
2018-06-22T19:42:41.041Z,2.37
2018-06-22T19:45:14.287Z,2.60
2018-06-22T19:47:47.627Z,2.63
2018-06-22T20:03:14.978Z,2.30
2018-06-22T20:05:42.807Z,2.60
2018-06-22T20:08:10.627Z,2.50
2018-06-22T20:10:38.381Z,3.10
2018-06-22T20:13:06.303Z,2.60
2018-06-22T20:15:34.148Z,2.70
2018-06-22T20:18:01.923Z,2.57
2018-06-22T20:20:29.717Z,3.13
2018-06-22T20:22:57.544Z,2.40
2018-06-22T20:25:31.203Z,2.90
2018-06-22T20:27:59.074Z,3.20
2018-06-22T20:30:26.887Z,3.40
2018-06-22T20:32:54.683Z,3.10
2018-06-22T20:35:27.975Z,3.00
2018-06-22T20:38:01.473Z,2.70
2018-06-22T20:40:35.031Z,2.87
2018-06-22T20:43:08.355Z,3.97
2018-06-22T20:45:56.515Z,3.50
2018-06-22T20:48:29.804Z,3.50
2018-06-22T20:50:57.684Z,3.43
2018-06-22T20:53:25.447Z,3.77
2018-06-22T20:55:53.207Z,3.53
2018-06-22T20:58:21.147Z,3.73
2018-06-22T21:00:49.694Z,2.73
2018-06-22T21:03:17.429Z,5.30
2018-06-22T21:05:45.140Z,3.63
2018-06-22T21:08:12.919Z,3.70
2018-06-22T21:10:40.728Z,4.00
2018-06-22T21:13:09.118Z,3.67
2018-06-22T21:15:36.875Z,3.90
2018-06-22T21:18:04.868Z,3.67
2018-06-22T21:20:32.934Z,4.03
2018-06-22T21:23:01.093Z,4.20
2018-06-22T21:25:29.238Z,4.23
2018-06-22T21:28:03.054Z,4.60
2018-06-22T21:30:36.538Z,4.20
2018-06-22T21:33:09.804Z,4.07
2018-06-22T21:35:43.365Z,4.20
2018-06-22T21:38:17.146Z,4.93
2018-06-22T21:40:45.171Z,4.67
2018-06-22T21:43:13.042Z,4.93
2018-06-22T21:45:40.962Z,4.27
2018-06-22T21:48:08.733Z,3.80
2018-06-22T21:50:36.565Z,4.27
2018-06-22T21:53:04.678Z,4.03
2018-06-22T21:55:32.433Z,4.27
2018-06-22T21:58:00.151Z,4.27
2018-06-22T22:00:30.476Z,4.00
2018-06-22T22:02:59.241Z,4.67
2018-06-22T22:05:27.877Z,4.30
2018-06-22T22:07:55.774Z,4.80
2018-06-22T22:10:29.165Z,3.90
2018-06-22T22:12:57.457Z,4.40
2018-06-22T22:15:25.268Z,4.47
2018-06-22T22:17:53.163Z,4.27
2018-06-22T22:20:21.101Z,4.83
2018-06-22T22:22:49.221Z,5.00
2018-06-22T22:25:16.925Z,5.70
2018-06-22T22:27:44.676Z,4.03
2018-06-22T22:30:12.434Z,4.67
2018-06-22T22:32:40.214Z,5.30
2018-06-22T22:35:08.099Z,4.60
2018-06-22T22:37:36.051Z,5.70
2018-06-22T22:40:04.045Z,5.63
2018-06-22T22:42:31.797Z,5.23
2018-06-22T22:44:59.538Z,5.77
2018-06-22T22:47:27.387Z,7.00
2018-06-22T22:49:55.138Z,7.20
2018-06-22T22:52:22.914Z,5.73
2018-06-22T22:54:50.671Z,6.27
2018-06-22T22:57:18.349Z,5.50
2018-06-22T22:59:46.183Z,5.97
2018-06-22T23:02:13.910Z,6.27
2018-06-22T23:04:41.660Z,5.23
2018-06-22T23:07:09.438Z,5.10
2018-06-22T23:09:37.201Z,5.07
2018-06-22T23:12:04.997Z,5.67
2018-06-22T23:14:32.903Z,5.20
2018-06-22T23:17:00.716Z,6.00
2018-06-22T23:19:28.577Z,5.40
2018-06-22T23:21:56.410Z,5.13
2018-06-22T23:24:24.398Z,5.70
2018-06-22T23:26:52.369Z,4.57
2018-06-22T23:29:20.309Z,5.20
2018-06-22T23:31:48.351Z,5.20
2018-06-22T23:34:16.121Z,5.80
2018-06-22T23:36:43.902Z,5.77
2018-06-22T23:39:11.630Z,6.30
2018-06-22T23:41:39.410Z,6.10
2018-06-22T23:44:07.297Z,6.30
2018-06-22T23:46:35.038Z,5.93
2018-06-22T23:49:02.811Z,5.80
2018-06-22T23:51:30.777Z,5.90
2018-06-22T23:53:58.543Z,5.13
2018-06-22T23:56:26.294Z,5.67
2018-06-22T23:58:54.261Z,6.07
